createdAt,value
2018-12-03T00:01:21.869Z,6.93
2018-12-03T00:03:52.410Z,7.93
2018-12-03T00:06:22.962Z,7.67
2018-12-03T00:08:53.990Z,8.93
2018-12-03T00:11:24.889Z,11.30
2018-12-03T00:13:55.501Z,9.03
2018-12-03T00:16:25.713Z,10.30
2018-12-03T00:18:55.997Z,10.40
2018-12-03T00:21:26.311Z,17.70
2018-12-03T00:23:56.812Z,11.53
2018-12-03T00:26:28.815Z,15.13
2018-12-03T00:28:59.170Z,13.47
2018-12-03T00:31:29.578Z,20.07
2018-12-03T00:34:00.083Z,19.40
2018-12-03T00:36:30.451Z,22.10
2018-12-03T00:39:00.822Z,20.67
2018-12-03T00:41:31.142Z,18.67
2018-12-03T00:44:02.008Z,19.97
2018-12-03T00:46:33.739Z,23.00
2018-12-03T00:49:04.387Z,19.10
2018-12-03T00:51:35.760Z,20.07
2018-12-03T00:54:06.676Z,17.80
2018-12-03T00:56:38.440Z,20.40
2018-12-03T00:59:09.606Z,22.53
2018-12-03T01:01:40.420Z,18.30
2018-12-03T01:04:12.255Z,16.90
2018-12-03T01:06:43.035Z,21.00
2018-12-03T01:09:13.612Z,19.50
2018-12-03T01:11:44.594Z,22.10
2018-12-03T01:14:14.729Z,25.37
2018-12-03T01:16:44.740Z,28.23
2018-12-03T01:19:15.434Z,25.17
2018-12-03T01:21:46.329Z,23.20
2018-12-03T01:24:16.561Z,20.80
2018-12-03T01:26:46.779Z,24.30
2018-12-03T01:29:17.402Z,26.83
2018-12-03T01:31:47.662Z,19.70
2018-12-03T01:34:18.886Z,25.03
2018-12-03T01:36:49.511Z,21.40
2018-12-03T01:39:19.590Z,24.33
2018-12-03T01:41:49.653Z,21.40
2018-12-03T01:44:19.726Z,20.23
2018-12-03T01:46:49.715Z,17.30
2018-12-03T01:49:20.481Z,17.33
2018-12-03T01:51:51.412Z,19.63
2018-12-03T01:54:23.264Z,18.80
2018-12-03T01:56:54.711Z,16.13
2018-12-03T01:59:24.782Z,19.83
2018-12-03T02:01:55.051Z,22.57
2018-12-03T02:04:25.937Z,19.43
2018-12-03T02:06:56.174Z,19.57
2018-12-03T02:09:26.870Z,17.57
2018-12-03T02:11:56.854Z,18.73
2018-12-03T02:14:26.906Z,18.50
2018-12-03T02:16:59.322Z,14.80
2018-12-03T02:19:29.428Z,14.87
2018-12-03T02:22:00.027Z,16.20
2018-12-03T02:24:30.107Z,21.37
2018-12-03T02:27:00.107Z,14.60
2018-12-03T02:29:30.946Z,17.10
2018-12-03T02:32:01.152Z,19.30
2018-12-03T02:34:32.602Z,15.97
2018-12-03T02:37:02.646Z,15.10
2018-12-03T02:39:33.573Z,16.57
2018-12-03T02:42:03.631Z,14.80
2018-12-03T02:44:34.175Z,15.70
2018-12-03T02:47:05.345Z,17.10
2018-12-03T02:49:36.952Z,13.73
2018-12-03T02:52:07.648Z,11.70
2018-12-03T02:54:39.144Z,12.77
2018-12-03T02:57:09.834Z,13.13
2018-12-03T02:59:39.803Z,15.00
2018-12-03T03:02:09.870Z,10.37
2018-12-03T03:04:40.670Z,11.80
2018-12-03T03:07:11.473Z,10.70
2018-12-03T03:09:41.655Z,12.63
2018-12-03T03:12:11.938Z,11.93
2018-12-03T03:14:42.677Z,9.70
2018-12-03T03:17:13.735Z,12.23
2018-12-03T03:19:43.888Z,10.80
2018-12-03T03:22:14.958Z,13.57
2018-12-03T03:24:45.744Z,11.40
2018-12-03T03:27:16.354Z,17.30
2018-12-03T03:29:46.454Z,9.87
2018-12-03T03:32:17.732Z,12.00
2018-12-03T03:34:48.796Z,13.10
2018-12-03T03:37:19.617Z,11.63
2018-12-03T03:39:51.971Z,11.70
2018-12-03T03:42:23.543Z,20.37
2018-12-03T03:44:53.677Z,10.83
2018-12-03T03:47:23.778Z,12.03
2018-12-03T03:49:54.939Z,16.50
2018-12-03T03:52:26.132Z,15.53
2018-12-03T03:54:57.662Z,15.10
2018-12-03T03:57:27.890Z,15.03
2018-12-03T03:59:57.886Z,15.00
2018-12-03T04:02:29.455Z,15.93
2018-12-03T04:05:00.223Z,15.13
2018-12-03T04:07:30.524Z,16.40
2018-12-03T04:10:01.282Z,15.60
2018-12-03T04:12:32.866Z,13.93
2018-12-03T04:15:04.400Z,17.13
2018-12-03T04:17:35.434Z,14.60
2018-12-03T04:20:10.685Z,14.97
2018-12-03T04:22:41.984Z,13.80
2018-12-03T04:25:14.106Z,13.57
2018-12-03T04:27:46.159Z,11.57
2018-12-03T04:30:18.992Z,12.20
2018-12-03T04:32:50.051Z,13.87
2018-12-03T04:35:20.709Z,10.20
2018-12-03T04:37:51.439Z,15.53
2018-12-03T04:40:22.142Z,12.33
2018-12-03T04:42:52.816Z,12.20
2018-12-03T04:45:23.981Z,9.80
2018-12-03T04:47:56.078Z,11.37
2018-12-03T04:50:26.045Z,11.83
2018-12-03T04:52:56.559Z,8.57
2018-12-03T04:55:26.707Z,8.13
2018-12-03T04:57:56.824Z,8.30
2018-12-03T05:00:28.185Z,8.90
2018-12-03T05:03:00.173Z,7.10
2018-12-03T05:05:31.862Z,7.33
2018-12-03T05:08:02.217Z,11.13
2018-12-03T05:10:34.226Z,5.90
2018-12-03T05:13:06.891Z,6.50
2018-12-03T05:15:37.041Z,10.03
2018-12-03T05:18:07.804Z,7.00
2018-12-03T05:20:37.869Z,5.60
2018-12-03T05:23:08.726Z,5.20
2018-12-03T05:25:39.344Z,3.87
2018-12-03T05:28:11.541Z,3.50
2018-12-03T05:30:42.191Z,4.27
2018-12-03T05:33:12.394Z,3.23
2018-12-03T05:35:43.621Z,4.70
2018-12-03T05:38:13.802Z,2.90
2018-12-03T05:40:45.383Z,2.57
2018-12-03T05:43:17.298Z,4.80
2018-12-03T05:45:49.286Z,3.73
2018-12-03T05:48:20.902Z,2.70
2018-12-03T05:50:50.943Z,2.87
2018-12-03T05:53:21.026Z,2.97
2018-12-03T05:55:51.094Z,3.40
2018-12-03T05:58:21.159Z,3.57
2018-12-03T06:00:54.202Z,3.30
2018-12-03T06:03:26.037Z,4.20
2018-12-03T06:05:57.291Z,3.60
2018-12-03T06:08:28.053Z,4.40
2018-12-03T06:10:58.755Z,4.90
2018-12-03T06:13:28.955Z,4.30
2018-12-03T06:15:59.627Z,4.00
2018-12-03T06:18:30.715Z,3.87
2018-12-03T06:21:00.681Z,7.37
2018-12-03T06:23:31.471Z,4.93
2018-12-03T06:26:03.010Z,5.30
2018-12-03T06:28:34.513Z,6.83
2018-12-03T06:31:04.691Z,5.53
2018-12-03T06:33:35.425Z,5.20
2018-12-03T06:36:06.026Z,5.67
2018-12-03T06:38:36.165Z,6.80
2018-12-03T06:41:07.676Z,6.83
2018-12-03T06:43:38.122Z,14.43
2018-12-03T06:46:08.830Z,5.57
2018-12-03T06:48:39.931Z,4.17
2018-12-03T06:51:10.107Z,5.07
2018-12-03T06:53:40.309Z,5.87
2018-12-03T06:56:11.846Z,5.13
2018-12-03T06:58:42.603Z,6.97
2018-12-03T07:01:13.320Z,5.07
2018-12-03T07:03:43.338Z,7.20
2018-12-03T07:06:13.529Z,3.53
2018-12-03T07:08:45.039Z,4.87
2018-12-03T07:11:16.267Z,3.50
2018-12-03T07:13:47.277Z,2.90
2018-12-03T07:16:17.459Z,8.60
2018-12-03T07:18:48.956Z,4.93
2018-12-03T07:21:18.951Z,8.83
2018-12-03T07:23:49.024Z,6.20
2018-12-03T07:26:20.381Z,9.57
2018-12-03T07:28:51.455Z,5.60
2018-12-03T07:31:22.466Z,7.30
2018-12-03T07:33:53.954Z,7.63
2018-12-03T07:36:24.497Z,8.73
2018-12-03T07:38:55.606Z,7.83
2018-12-03T07:41:26.201Z,4.27
2018-12-03T07:43:56.326Z,5.70
2018-12-03T07:46:27.115Z,7.43
2018-12-03T07:48:57.219Z,6.80
2018-12-03T07:51:28.072Z,7.30
2018-12-03T07:53:59.098Z,7.10
2018-12-03T07:56:29.069Z,7.60
2018-12-03T07:58:59.658Z,8.40
2018-12-03T08:01:30.534Z,11.00
2018-12-03T08:04:02.016Z,7.93
2018-12-03T08:06:34.037Z,15.73
2018-12-03T08:09:07.141Z,12.20
2018-12-03T08:11:37.682Z,5.77
2018-12-03T08:14:08.512Z,5.87
2018-12-03T08:16:39.950Z,6.60
2018-12-03T08:19:09.997Z,6.13
2018-12-03T08:21:40.199Z,5.30
2018-12-03T08:24:14.055Z,4.57
2018-12-03T08:26:44.170Z,5.23
2018-12-03T08:29:15.380Z,5.17
2018-12-03T08:31:45.453Z,4.30
2018-12-03T08:34:17.435Z,3.83
2018-12-03T08:36:47.522Z,2.57
2018-12-03T08:39:19.592Z,4.47
2018-12-03T08:41:51.651Z,4.40
2018-12-03T08:44:21.715Z,6.10
2018-12-03T08:46:53.437Z,2.93
2018-12-03T08:49:23.428Z,2.13
2018-12-03T08:51:54.677Z,22.03
2018-12-03T08:54:26.110Z,3.00
2018-12-03T08:56:57.400Z,3.73
2018-12-03T08:59:33.910Z,2.50
2018-12-03T09:02:04.540Z,5.40
2018-12-03T09:04:36.170Z,3.33
2018-12-03T09:07:07.513Z,4.67
2018-12-03T09:09:38.256Z,10.20
2018-12-03T09:12:08.358Z,8.67
2018-12-03T09:14:38.948Z,3.40
2018-12-03T09:17:09.869Z,3.50
2018-12-03T09:19:40.898Z,5.53
2018-12-03T09:22:12.768Z,7.83
2018-12-03T09:24:43.682Z,6.30
2018-12-03T09:27:17.209Z,5.70
2018-12-03T09:29:48.572Z,6.13
2018-12-03T09:32:18.751Z,4.60
2018-12-03T09:34:49.628Z,5.87
2018-12-03T09:37:20.217Z,7.10
2018-12-03T09:39:50.972Z,4.87
2018-12-03T09:42:21.634Z,4.07
2018-12-03T09:44:51.633Z,4.63
2018-12-03T09:47:22.598Z,2.93
2018-12-03T09:49:53.310Z,12.27
2018-12-03T09:52:23.910Z,6.83
2018-12-03T09:54:55.191Z,5.17
2018-12-03T09:57:26.395Z,9.10
2018-12-03T09:59:57.707Z,8.03
2018-12-03T10:02:29.066Z,8.17
2018-12-03T10:05:00.778Z,7.03
2018-12-03T10:07:31.953Z,11.23
2018-12-03T10:10:02.738Z,5.90
2018-12-03T10:12:34.501Z,5.87
2018-12-03T10:15:04.710Z,11.43
2018-12-03T10:17:35.449Z,6.10
2018-12-03T10:20:06.679Z,13.50
2018-12-03T10:22:36.716Z,9.00
2018-12-03T10:25:13.083Z,13.17
2018-12-03T10:27:44.817Z,11.03
2018-12-03T10:30:23.469Z,8.77
2018-12-03T10:32:54.309Z,4.50
2018-12-03T10:35:24.602Z,10.13
2018-12-03T10:37:55.885Z,7.13
2018-12-03T10:40:26.996Z,8.00
2018-12-03T10:42:57.578Z,6.00
2018-12-03T10:45:29.085Z,9.60
2018-12-03T10:48:00.544Z,7.37
2018-12-03T10:50:31.294Z,8.87
2018-12-03T10:53:02.446Z,9.30
2018-12-03T10:55:33.238Z,8.40
2018-12-03T10:58:04.618Z,10.50
2018-12-03T11:00:40.601Z,14.73
2018-12-03T11:03:15.089Z,5.70
2018-12-03T11:05:50.822Z,10.77
2018-12-03T11:08:24.415Z,18.33
2018-12-03T11:10:56.271Z,10.70
2018-12-03T11:13:26.411Z,11.03
2018-12-03T11:15:57.821Z,5.53
2018-12-03T11:18:28.151Z,15.70
2018-12-03T11:21:04.226Z,16.33
2018-12-03T11:23:34.563Z,9.13
2018-12-03T11:26:05.579Z,12.30
2018-12-03T11:28:40.299Z,8.97
2018-12-03T11:31:27.702Z,12.27
2018-12-03T11:33:58.438Z,13.30
2018-12-03T11:37:16.839Z,15.97
2018-12-03T11:39:56.710Z,11.50
2018-12-03T11:42:31.063Z,12.30
2018-12-03T11:45:01.082Z,10.77
2018-12-03T11:47:31.301Z,5.57
2018-12-03T11:50:02.152Z,11.40
2018-12-03T11:52:34.868Z,13.83
2018-12-03T11:55:05.893Z,12.73
2018-12-03T11:57:36.737Z,14.30
2018-12-03T12:00:13.201Z,16.83
2018-12-03T12:02:43.380Z,11.93
2018-12-03T12:05:13.705Z,26.10
2018-12-03T12:07:44.316Z,13.97
2018-12-03T12:10:15.413Z,14.90
2018-12-03T12:12:46.236Z,23.70
2018-12-03T12:15:16.254Z,12.57
2018-12-03T12:17:47.502Z,14.97
2018-12-03T12:20:18.772Z,16.83
2018-12-03T12:22:51.242Z,16.33
2018-12-03T12:25:22.478Z,15.33
2018-12-03T12:27:56.158Z,12.87
2018-12-03T12:30:27.501Z,13.23
2018-12-03T12:32:58.172Z,13.23
2018-12-03T12:35:28.211Z,14.47
2018-12-03T12:37:58.405Z,14.53
2018-12-03T12:40:28.965Z,16.30
2018-12-03T12:42:59.790Z,17.43
2018-12-03T12:45:36.208Z,13.70
2018-12-03T12:48:06.653Z,15.53
2018-12-03T12:50:37.238Z,20.80
2018-12-03T12:53:07.868Z,13.73
2018-12-03T12:55:40.265Z,18.10
2018-12-03T12:58:10.253Z,13.60
2018-12-03T13:00:40.505Z,14.37
2018-12-03T13:03:11.333Z,15.23
2018-12-03T13:05:41.977Z,14.80
2018-12-03T13:08:12.217Z,22.10
2018-12-03T13:10:43.465Z,13.73
2018-12-03T13:13:13.458Z,14.37
2018-12-03T13:15:44.682Z,18.43
2018-12-03T13:18:14.784Z,14.50
2018-12-03T13:20:45.417Z,16.20
2018-12-03T13:23:15.409Z,19.70
2018-12-03T13:25:45.601Z,27.20
2018-12-03T13:28:15.621Z,9.70
2018-12-03T13:30:46.509Z,18.43
2018-12-03T13:33:16.694Z,11.33
2018-12-03T13:35:47.252Z,13.20
2018-12-03T13:38:17.739Z,13.93
2018-12-03T13:40:47.748Z,12.53
2018-12-03T13:43:18.438Z,19.77
2018-12-03T13:45:48.369Z,13.53
2018-12-03T13:48:18.373Z,13.47
2018-12-03T13:50:49.095Z,17.23
2018-12-03T13:53:20.160Z,18.73
2018-12-03T13:55:51.261Z,18.13
2018-12-03T13:58:21.330Z,19.97
2018-12-03T14:00:51.372Z,13.10
2018-12-03T14:03:29.188Z,23.80
2018-12-03T14:06:38.234Z,21.97
2018-12-03T14:09:52.363Z,24.53
2018-12-03T14:12:45.332Z,24.70
2018-12-03T14:16:47.827Z,13.37
2018-12-03T14:19:23.311Z,20.83
2018-12-03T14:22:06.813Z,16.33
2018-12-03T14:24:37.654Z,19.40
2018-12-03T14:27:08.739Z,17.83
2018-12-03T14:29:38.807Z,17.10
2018-12-03T14:32:09.748Z,18.13
2018-12-03T14:34:39.814Z,18.00
2018-12-03T14:37:10.649Z,11.43
2018-12-03T14:39:40.672Z,19.23
2018-12-03T14:42:11.550Z,13.53
2018-12-03T14:44:42.194Z,22.77
2018-12-03T14:47:12.990Z,15.20
2018-12-03T14:49:43.091Z,27.47
2018-12-03T14:52:14.667Z,23.27
2018-12-03T14:54:45.277Z,14.20
2018-12-03T14:57:15.357Z,14.77
2018-12-03T14:59:45.886Z,18.77
2018-12-03T15:02:16.574Z,16.27
2018-12-03T15:04:46.716Z,20.07
2018-12-03T15:07:18.121Z,16.67
2018-12-03T15:09:48.807Z,19.90
2018-12-03T15:12:18.891Z,19.53
2018-12-03T15:14:49.036Z,13.60
2018-12-03T15:17:19.638Z,17.80
2018-12-03T15:19:49.584Z,14.30
2018-12-03T15:22:21.241Z,18.50
2018-12-03T15:24:51.910Z,16.00
2018-12-03T15:27:23.407Z,20.13
2018-12-03T15:29:54.607Z,24.80
2018-12-03T15:32:25.222Z,21.20
2018-12-03T15:34:57.054Z,19.70
2018-12-03T15:37:27.539Z,14.50
2018-12-03T15:39:58.877Z,14.80
2018-12-03T15:42:29.660Z,18.97
2018-12-03T15:45:00.559Z,20.87
2018-12-03T15:47:31.171Z,25.57
2018-12-03T15:50:02.934Z,19.00
2018-12-03T15:52:33.887Z,19.53
2018-12-03T15:55:05.603Z,24.33
2018-12-03T15:57:35.660Z,17.00
2018-12-03T16:00:09.405Z,21.73
2018-12-03T16:02:40.005Z,20.83
2018-12-03T16:05:16.655Z,25.27
2018-12-03T16:07:46.727Z,29.17
2018-12-03T16:10:16.949Z,18.93
2018-12-03T16:12:48.359Z,27.80
2018-12-03T16:15:18.428Z,23.50
2018-12-03T16:17:49.676Z,18.43
2018-12-03T16:20:20.882Z,17.73
2018-12-03T16:22:52.218Z,25.33
2018-12-03T16:25:22.893Z,26.13
2018-12-03T16:27:53.342Z,22.33
2018-12-03T16:30:25.455Z,25.13
2018-12-03T16:32:56.976Z,24.13
2018-12-03T16:35:27.036Z,18.63
2018-12-03T16:37:57.089Z,14.27
2018-12-03T16:40:28.262Z,27.90
2018-12-03T16:42:59.142Z,24.40
2018-12-03T16:45:29.098Z,34.63
2018-12-03T16:47:59.730Z,28.23
2018-12-03T16:50:31.503Z,26.83
2018-12-03T16:53:01.950Z,18.63
2018-12-03T16:55:32.053Z,23.53
2018-12-03T16:58:02.698Z,18.17
2018-12-03T17:00:34.192Z,21.30
2018-12-03T17:03:05.148Z,30.77
2018-12-03T17:05:37.439Z,21.57
2018-12-03T17:08:07.515Z,29.63
2018-12-03T17:10:38.241Z,31.53
2018-12-03T17:13:08.470Z,28.43
2018-12-03T17:15:38.411Z,20.40
2018-12-03T17:18:09.259Z,23.33
2018-12-03T17:20:52.679Z,22.63
2018-12-03T17:24:11.868Z,26.60
2018-12-03T17:26:43.152Z,23.70
2018-12-03T17:29:13.101Z,26.63
2018-12-03T17:31:43.694Z,18.07
2018-12-03T17:34:15.234Z,25.23
2018-12-03T17:36:45.765Z,24.93
2018-12-03T17:39:16.527Z,21.67
2018-12-03T17:41:46.650Z,15.30
2018-12-03T17:44:18.699Z,22.00
2018-12-03T17:46:48.851Z,24.00
2018-12-03T17:49:18.841Z,20.27
2018-12-03T17:51:48.866Z,25.83
2018-12-03T17:54:19.066Z,24.10
2018-12-03T17:56:49.872Z,28.80
2018-12-03T17:59:20.069Z,21.90
2018-12-03T18:01:51.142Z,26.00
2018-12-03T18:04:22.348Z,20.63
2018-12-03T18:06:53.188Z,20.93
2018-12-03T18:09:23.923Z,20.20
2018-12-03T18:11:54.150Z,22.43
2018-12-03T18:14:26.118Z,24.50
2018-12-03T18:16:57.992Z,19.63
2018-12-03T18:19:28.114Z,16.63
2018-12-03T18:21:58.146Z,19.73
2018-12-03T18:24:28.821Z,18.00
2018-12-03T18:27:00.333Z,21.93
2018-12-03T18:29:30.913Z,20.10
2018-12-03T18:32:02.729Z,26.30
2018-12-03T18:34:32.758Z,18.30
2018-12-03T18:37:04.111Z,18.07
2018-12-03T18:39:35.325Z,15.67
2018-12-03T18:42:06.003Z,21.20
2018-12-03T18:44:36.834Z,23.83
2018-12-03T18:47:07.039Z,16.07
2018-12-03T18:49:41.423Z,22.03
2018-12-03T18:52:13.207Z,22.33
2018-12-03T18:54:43.962Z,14.20
2018-12-03T18:57:14.001Z,31.20
2018-12-03T18:59:44.680Z,25.43
2018-12-03T19:02:14.873Z,61.37
2018-12-03T19:04:45.670Z,26.33
2018-12-03T19:07:16.111Z,20.40
2018-12-03T19:09:47.845Z,20.83
2018-12-03T19:12:18.736Z,16.87
2018-12-03T19:17:50.098Z,18.40
2018-12-03T19:20:20.701Z,19.70
2018-12-03T19:22:51.453Z,17.13
2018-12-03T19:25:22.394Z,22.17
2018-12-03T19:28:12.559Z,20.30
2018-12-03T19:30:43.774Z,20.17
2018-12-03T19:33:14.886Z,22.50
2018-12-03T19:35:45.580Z,16.07
2018-12-03T19:38:17.325Z,23.23
2018-12-03T19:40:47.430Z,23.07
2018-12-03T19:43:18.077Z,20.10
2018-12-03T19:45:48.906Z,14.90
2018-12-03T19:48:19.035Z,16.80
2018-12-03T19:50:51.175Z,14.53
2018-12-03T19:53:21.501Z,12.63
2018-12-03T19:55:52.650Z,15.87
2018-12-03T19:58:31.489Z,18.67
2018-12-03T20:01:01.600Z,8.63
2018-12-03T20:03:31.727Z,15.07
2018-12-03T20:06:02.550Z,12.50
2018-12-03T20:08:33.603Z,15.53
2018-12-03T20:11:04.725Z,15.90
2018-12-03T20:13:34.853Z,25.70
2018-12-03T20:16:05.203Z,21.50
2018-12-03T20:18:37.351Z,19.33
2018-12-03T20:21:17.074Z,17.50
2018-12-03T20:23:54.899Z,18.50
2018-12-03T20:26:33.514Z,10.60
2018-12-03T20:29:27.578Z,18.13
2018-12-03T20:34:15.607Z,14.63
2018-12-03T20:37:37.987Z,14.57
2018-12-03T20:40:57.718Z,17.60
2018-12-03T20:43:30.584Z,14.03
2018-12-03T20:46:12.725Z,15.33
2018-12-03T20:48:58.765Z,12.50
2018-12-03T20:51:39.318Z,12.17
2018-12-03T20:54:10.309Z,13.30
2018-12-03T20:56:40.908Z,14.97
2018-12-03T20:59:11.055Z,15.80
2018-12-03T21:01:46.218Z,14.43
2018-12-03T21:04:21.021Z,9.47
2018-12-03T21:06:51.404Z,11.50
2018-12-03T21:09:22.042Z,9.13
2018-12-03T21:11:53.134Z,12.47
2018-12-03T21:14:23.267Z,5.67
2018-12-03T21:16:54.594Z,11.37
2018-12-03T21:19:25.663Z,5.70
2018-12-03T21:21:58.261Z,7.57
2018-12-03T21:24:28.997Z,6.93
2018-12-03T21:26:59.079Z,10.90
2018-12-03T21:29:29.124Z,12.33
2018-12-03T21:31:59.672Z,10.83
2018-12-03T21:34:30.820Z,14.27
2018-12-03T21:37:00.997Z,12.60
2018-12-03T21:39:32.330Z,8.33
2018-12-03T21:42:02.316Z,10.93
2018-12-03T21:44:32.498Z,11.93
2018-12-03T21:47:02.670Z,8.33
2018-12-03T21:49:32.732Z,11.17
2018-12-03T21:52:02.811Z,13.57
2018-12-03T21:54:34.241Z,22.00
2018-12-03T21:57:10.653Z,11.17
2018-12-03T21:59:38.581Z,14.93
2018-12-03T22:02:09.169Z,15.27
2018-12-03T22:04:39.293Z,16.77
2018-12-03T22:07:09.301Z,12.43
2018-12-03T22:09:40.127Z,14.67
2018-12-03T22:12:10.965Z,8.90
2018-12-03T22:14:41.667Z,6.73
2018-12-03T22:17:12.522Z,8.73
2018-12-03T22:19:43.253Z,14.20
2018-12-03T22:22:13.995Z,12.77
2018-12-03T22:24:45.297Z,13.10
2018-12-03T22:27:15.674Z,11.57
2018-12-03T22:29:46.388Z,16.20
2018-12-03T22:32:17.376Z,17.60
2018-12-03T22:34:49.566Z,25.33
2018-12-03T22:37:20.057Z,16.93
2018-12-03T22:39:50.602Z,16.93
2018-12-03T22:42:23.483Z,14.20
2018-12-03T22:44:54.353Z,14.20
2018-12-03T22:47:24.238Z,16.20
2018-12-03T22:49:55.441Z,19.33
2018-12-03T22:52:25.940Z,20.33
2018-12-03T22:54:56.797Z,18.77
2018-12-03T22:57:28.477Z,16.50
2018-12-03T22:59:59.435Z,13.57
2018-12-03T23:02:30.835Z,24.00
2018-12-03T23:05:00.835Z,14.57
2018-12-03T23:07:32.082Z,25.57
2018-12-03T23:10:02.192Z,16.33
2018-12-03T23:12:32.661Z,23.63
2018-12-03T23:15:04.014Z,20.13
2018-12-03T23:17:35.669Z,18.50
2018-12-03T23:20:07.842Z,14.70
2018-12-03T23:22:37.841Z,19.50
2018-12-03T23:25:08.886Z,18.57
2018-12-03T23:27:39.841Z,31.87
2018-12-03T23:30:10.283Z,21.30
2018-12-03T23:32:40.934Z,20.30
2018-12-03T23:35:11.038Z,24.17
2018-12-03T23:37:41.061Z,18.87
2018-12-03T23:40:12.207Z,14.60
2018-12-03T23:42:42.891Z,8.87
2018-12-03T23:45:12.839Z,7.13
2018-12-03T23:47:42.857Z,5.20
2018-12-03T23:50:14.124Z,6.17
2018-12-03T23:52:44.603Z,5.37
2018-12-03T23:55:15.996Z,14.27
2018-12-03T23:57:47.166Z,4.57
